createdAt,value
2022-09-11T00:01:27.276Z,13.70
2022-09-11T00:03:56.333Z,13.70
2022-09-11T00:06:29.918Z,13.70
2022-09-11T00:09:00.700Z,13.70
2022-09-11T00:11:31.292Z,13.70
2022-09-11T00:13:58.267Z,13.60
2022-09-11T00:16:29.334Z,13.70
2022-09-11T00:18:58.142Z,13.60
2022-09-11T00:21:25.197Z,13.70
2022-09-11T00:23:51.859Z,13.60
2022-09-11T00:26:18.819Z,13.60
2022-09-11T00:28:45.947Z,13.60
2022-09-11T00:31:14.402Z,13.60
2022-09-11T00:33:42.194Z,13.60
2022-09-11T00:36:12.182Z,13.60
2022-09-11T00:38:39.335Z,13.60
2022-09-11T00:41:07.957Z,13.60
2022-09-11T00:44:12.033Z,13.60
2022-09-11T00:46:41.254Z,13.60
2022-09-11T00:49:16.806Z,13.60
2022-09-11T00:51:45.006Z,13.60
2022-09-11T00:54:13.180Z,13.60
2022-09-11T00:56:41.919Z,13.60
2022-09-11T00:59:09.824Z,13.60
2022-09-11T01:01:37.326Z,13.60
2022-09-11T01:04:05.716Z,13.60
2022-09-11T01:06:32.797Z,13.60
2022-09-11T01:08:59.574Z,13.60
2022-09-11T01:11:46.494Z,13.60
2022-09-11T01:14:48.973Z,13.60
2022-09-11T01:17:19.430Z,13.60
2022-09-11T01:20:01.592Z,13.50
2022-09-11T01:22:51.744Z,13.60
2022-09-11T01:25:24.427Z,13.60
2022-09-11T01:27:52.164Z,13.60
2022-09-11T01:30:19.856Z,13.60
2022-09-11T01:32:59.317Z,13.60
2022-09-11T01:35:46.377Z,13.60
2022-09-11T01:38:18.418Z,13.60
2022-09-11T01:40:51.398Z,13.60
2022-09-11T01:43:24.115Z,13.60
2022-09-11T01:45:51.850Z,13.60
2022-09-11T01:48:20.626Z,13.60
2022-09-11T01:50:47.741Z,13.60
2022-09-11T01:53:18.418Z,13.60
2022-09-11T01:55:55.502Z,13.60
2022-09-11T01:58:29.575Z,13.60
2022-09-11T02:00:59.142Z,13.60
2022-09-11T02:03:28.461Z,13.60
2022-09-11T02:05:55.157Z,13.60
2022-09-11T02:08:30.341Z,13.60
2022-09-11T02:11:07.144Z,13.60
2022-09-11T02:13:50.774Z,13.60
2022-09-11T02:16:25.569Z,13.60
2022-09-11T02:19:01.117Z,13.60
2022-09-11T02:21:28.014Z,13.60
2022-09-11T02:23:55.567Z,13.60
2022-09-11T02:26:24.606Z,13.60
2022-09-11T02:28:52.078Z,13.60
2022-09-11T02:31:19.978Z,13.60
2022-09-11T02:33:47.163Z,13.60
2022-09-11T02:36:23.051Z,13.60
2022-09-11T02:39:01.591Z,13.70
2022-09-11T02:41:31.928Z,13.70
2022-09-11T02:43:58.546Z,13.70
2022-09-11T02:46:51.926Z,13.70
2022-09-11T02:49:28.184Z,13.70
2022-09-11T02:51:59.248Z,13.70
2022-09-11T02:54:41.586Z,13.80
2022-09-11T02:57:20.735Z,13.70
2022-09-11T02:59:53.230Z,13.70
2022-09-11T03:02:20.031Z,13.70
2022-09-11T03:04:48.425Z,13.70
2022-09-11T03:07:15.093Z,13.70
2022-09-11T03:09:42.045Z,13.70
2022-09-11T03:12:08.806Z,13.70
2022-09-11T03:14:35.971Z,13.70
2022-09-11T03:17:02.714Z,13.70
2022-09-11T03:19:29.407Z,13.60
2022-09-11T03:21:56.124Z,13.60
2022-09-11T03:24:22.939Z,13.60
2022-09-11T03:26:49.626Z,13.60
2022-09-11T03:29:16.247Z,13.60
2022-09-11T03:31:42.985Z,13.60
2022-09-11T03:34:10.410Z,13.60
2022-09-11T03:36:37.057Z,13.60
2022-09-11T03:39:03.732Z,13.60
2022-09-11T03:41:30.415Z,13.60
2022-09-11T03:43:57.062Z,13.60
2022-09-11T03:46:24.296Z,13.60
2022-09-11T03:48:51.356Z,13.60
2022-09-11T03:51:17.992Z,13.60
2022-09-11T03:53:44.843Z,13.60
2022-09-11T03:56:11.779Z,13.60
2022-09-11T03:58:38.449Z,13.60
2022-09-11T04:01:10.788Z,13.50
2022-09-11T04:03:37.557Z,13.50
2022-09-11T04:06:04.402Z,13.50
2022-09-11T04:08:34.132Z,13.40
2022-09-11T04:11:02.842Z,13.40
2022-09-11T04:13:30.594Z,13.40
2022-09-11T04:16:01.084Z,13.40
2022-09-11T04:18:27.766Z,13.40
2022-09-11T04:20:54.494Z,13.40
2022-09-11T04:23:21.300Z,13.40
2022-09-11T04:25:48.284Z,13.40
2022-09-11T04:28:14.923Z,13.40
2022-09-11T04:30:42.397Z,13.40
2022-09-11T04:33:09.061Z,13.40
2022-09-11T04:35:39.749Z,13.40
2022-09-11T04:38:07.187Z,13.40
2022-09-11T04:40:34.784Z,13.40
2022-09-11T04:43:01.765Z,13.40
2022-09-11T04:45:33.003Z,13.40
2022-09-11T04:48:00.210Z,13.40
2022-09-11T04:50:28.527Z,13.50
2022-09-11T04:52:55.271Z,13.50
2022-09-11T04:55:21.938Z,13.50
2022-09-11T04:57:48.669Z,13.50
2022-09-11T05:00:15.709Z,13.50
2022-09-11T05:02:42.423Z,13.50
2022-09-11T05:05:09.377Z,13.60
2022-09-11T05:07:36.276Z,13.60
2022-09-11T05:10:03.171Z,13.60
2022-09-11T05:12:31.890Z,13.60
2022-09-11T05:14:59.095Z,13.60
2022-09-11T05:17:25.797Z,13.60
2022-09-11T05:19:52.434Z,13.60
2022-09-11T05:22:19.095Z,13.60
2022-09-11T05:24:45.740Z,13.60
2022-09-11T05:27:14.181Z,13.60
2022-09-11T05:29:41.903Z,13.70
2022-09-11T05:32:08.652Z,13.70
2022-09-11T05:34:35.349Z,13.70
2022-09-11T05:37:02.336Z,13.70
2022-09-11T05:39:29.320Z,13.70
2022-09-11T05:41:55.960Z,13.80
2022-09-11T05:44:22.910Z,13.80
2022-09-11T05:46:49.551Z,13.80
2022-09-11T05:49:16.227Z,13.90
2022-09-11T05:51:42.857Z,13.90
2022-09-11T05:54:09.533Z,14.00
2022-09-11T05:56:36.747Z,14.00
2022-09-11T05:59:03.943Z,14.00
2022-09-11T06:01:31.233Z,14.00
2022-09-11T06:03:58.002Z,14.00
2022-09-11T06:06:25.348Z,14.10
2022-09-11T06:08:52.953Z,14.10
2022-09-11T06:11:20.617Z,14.10
2022-09-11T06:13:48.404Z,14.10
2022-09-11T06:16:25.210Z,14.20
2022-09-11T06:18:52.940Z,14.20
2022-09-11T06:21:21.070Z,14.20
2022-09-11T06:23:48.518Z,14.20
2022-09-11T06:26:16.180Z,14.30
2022-09-11T06:28:43.054Z,14.30
2022-09-11T06:31:13.549Z,14.40
2022-09-11T06:33:41.000Z,14.50
2022-09-11T06:36:12.099Z,14.60
2022-09-11T06:38:38.879Z,14.70
2022-09-11T06:41:06.560Z,14.80
2022-09-11T06:43:33.577Z,14.90
2022-09-11T06:46:04.457Z,15.00
2022-09-11T06:48:31.327Z,15.10
2022-09-11T06:51:01.871Z,15.10
2022-09-11T06:53:28.507Z,15.20
2022-09-11T06:55:58.655Z,15.20
2022-09-11T06:58:25.567Z,15.20
2022-09-11T07:00:52.280Z,15.20
2022-09-11T07:03:19.557Z,15.20
2022-09-11T07:05:47.378Z,15.20
2022-09-11T07:08:14.168Z,15.30
2022-09-11T07:10:40.979Z,15.40
2022-09-11T07:13:07.619Z,15.40
2022-09-11T07:15:34.329Z,15.40
2022-09-11T07:18:02.152Z,15.50
2022-09-11T07:20:28.979Z,15.60
2022-09-11T07:22:55.618Z,15.80
2022-09-11T07:25:22.241Z,16.00
2022-09-11T07:27:48.878Z,16.10
2022-09-11T07:30:15.603Z,16.30
2022-09-11T07:32:42.259Z,16.20
2022-09-11T07:35:09.043Z,16.20
2022-09-11T07:37:35.731Z,16.10
2022-09-11T07:40:03.265Z,16.00
2022-09-11T07:42:30.044Z,15.90
2022-09-11T07:44:56.763Z,15.90
2022-09-11T07:47:23.542Z,15.90
2022-09-11T07:49:51.079Z,15.90
2022-09-11T07:52:20.236Z,16.00
2022-09-11T07:54:47.216Z,16.00
2022-09-11T07:57:13.862Z,16.10
2022-09-11T07:59:40.560Z,16.10
2022-09-11T08:02:08.029Z,16.20
2022-09-11T08:04:34.829Z,16.30
2022-09-11T08:07:01.503Z,16.40
2022-09-11T08:09:28.235Z,16.40
2022-09-11T08:11:58.537Z,16.50
2022-09-11T08:14:26.079Z,16.70
2022-09-11T08:16:53.619Z,16.90
2022-09-11T08:19:21.554Z,17.00
2022-09-11T08:21:48.633Z,17.10
2022-09-11T08:24:17.089Z,17.30
2022-09-11T08:26:48.631Z,17.30
2022-09-11T08:29:15.772Z,17.30
2022-09-11T08:31:42.525Z,17.40
2022-09-11T08:34:10.278Z,17.50
2022-09-11T08:36:37.008Z,17.50
2022-09-11T08:39:03.950Z,17.60
2022-09-11T08:41:33.630Z,17.60
2022-09-11T08:44:09.632Z,17.50
2022-09-11T08:46:39.023Z,17.30
2022-09-11T08:49:08.773Z,17.30
2022-09-11T08:51:35.539Z,17.40
2022-09-11T08:54:02.671Z,17.60
2022-09-11T08:56:30.381Z,17.80
2022-09-11T08:59:03.198Z,18.20
2022-09-11T09:01:50.143Z,18.30
2022-09-11T09:04:50.937Z,18.40
2022-09-11T09:07:32.974Z,18.70
2022-09-11T09:10:27.732Z,18.90
2022-09-11T09:13:21.242Z,19.00
2022-09-11T09:15:57.575Z,18.90
2022-09-11T09:18:30.501Z,18.80
2022-09-11T09:21:01.129Z,18.80
2022-09-11T09:23:35.643Z,18.80
2022-09-11T09:26:02.319Z,18.70
2022-09-11T09:28:40.654Z,18.80
2022-09-11T09:31:09.219Z,18.80
2022-09-11T09:33:43.217Z,19.00
2022-09-11T09:36:12.929Z,19.20
2022-09-11T09:38:39.671Z,19.40
2022-09-11T09:41:12.664Z,19.30
2022-09-11T09:43:56.010Z,19.20
2022-09-11T09:46:26.562Z,19.00
2022-09-11T09:48:53.330Z,18.80
2022-09-11T09:51:20.016Z,18.70
2022-09-11T09:53:51.044Z,18.50
2022-09-11T09:56:19.336Z,18.40
2022-09-11T09:59:09.354Z,18.30
2022-09-11T10:01:39.639Z,18.20
2022-09-11T10:04:11.258Z,18.00
2022-09-11T10:06:37.948Z,18.00
2022-09-11T10:09:04.592Z,18.10
2022-09-11T10:11:31.311Z,18.30
2022-09-11T10:13:57.968Z,18.50
2022-09-11T10:16:26.309Z,18.50
2022-09-11T10:18:54.229Z,18.50
2022-09-11T10:21:23.380Z,18.40
2022-09-11T10:23:50.571Z,18.20
2022-09-11T10:26:18.871Z,18.10
2022-09-11T10:28:46.878Z,18.00
2022-09-11T10:31:17.447Z,17.70
2022-09-11T10:33:56.557Z,17.40
2022-09-11T10:36:24.758Z,17.10
2022-09-11T10:38:52.007Z,16.80
2022-09-11T10:41:27.104Z,16.50
2022-09-11T10:44:00.473Z,16.30
2022-09-11T10:46:28.786Z,16.20
2022-09-11T10:49:05.071Z,16.20
2022-09-11T10:51:32.969Z,16.20
2022-09-11T10:54:18.451Z,16.40
2022-09-11T10:56:52.330Z,16.70
2022-09-11T10:59:22.485Z,17.10
2022-09-11T11:01:49.451Z,17.50
2022-09-11T11:04:17.071Z,18.10
2022-09-11T11:06:46.867Z,18.60
2022-09-11T11:09:20.722Z,19.00
2022-09-11T11:11:59.524Z,19.30
2022-09-11T11:14:44.978Z,19.40
2022-09-11T11:17:31.730Z,19.30
2022-09-11T11:20:02.864Z,19.10
2022-09-11T11:23:05.081Z,18.90
2022-09-11T11:25:34.524Z,18.50
2022-09-11T11:28:20.043Z,18.20
2022-09-11T11:30:49.884Z,18.00
2022-09-11T11:33:20.080Z,17.90
2022-09-11T11:36:05.521Z,18.00
2022-09-11T11:38:44.184Z,18.30
2022-09-11T11:41:22.860Z,18.50
2022-09-11T11:43:51.613Z,18.50
2022-09-11T11:46:21.142Z,18.40
2022-09-11T11:48:53.683Z,18.30
2022-09-11T11:51:23.928Z,18.10
2022-09-11T11:54:03.633Z,17.90
2022-09-11T11:56:49.202Z,17.80
2022-09-11T11:59:25.190Z,17.80
2022-09-11T12:01:58.603Z,17.80
2022-09-11T12:04:34.164Z,18.00
2022-09-11T12:07:02.577Z,18.30
2022-09-11T12:09:33.759Z,18.50
2022-09-11T12:12:04.492Z,18.60
2022-09-11T12:14:33.588Z,18.60
2022-09-11T12:17:19.996Z,18.60
2022-09-11T12:20:05.128Z,18.70
2022-09-11T12:22:38.521Z,18.80
2022-09-11T12:25:25.416Z,18.90
2022-09-11T12:27:53.793Z,19.00
2022-09-11T12:30:27.950Z,19.10
2022-09-11T12:32:55.749Z,19.20
2022-09-11T12:35:22.403Z,19.30
2022-09-11T12:37:55.736Z,19.40
2022-09-11T12:40:32.158Z,19.40
2022-09-11T12:43:27.494Z,19.40
2022-09-11T12:45:54.356Z,19.50
2022-09-11T12:48:22.421Z,19.40
2022-09-11T12:50:50.935Z,19.30
2022-09-11T12:53:21.279Z,19.20
2022-09-11T12:55:58.707Z,19.10
2022-09-11T12:58:28.492Z,19.10
2022-09-11T13:01:11.092Z,19.20
2022-09-11T13:03:38.656Z,19.30
2022-09-11T13:06:10.192Z,19.50
2022-09-11T13:08:38.723Z,19.50
2022-09-11T13:11:25.575Z,19.70
2022-09-11T13:13:52.204Z,19.90
2022-09-11T13:16:26.466Z,20.00
2022-09-11T13:19:11.968Z,20.20
2022-09-11T13:21:39.404Z,20.30
2022-09-11T13:24:26.121Z,20.40
2022-09-11T13:26:58.082Z,20.40
2022-09-11T13:29:26.688Z,20.50
2022-09-11T13:31:53.868Z,20.50
2022-09-11T13:34:21.863Z,20.50
2022-09-11T13:36:52.373Z,20.50
2022-09-11T13:39:23.671Z,20.40
2022-09-11T13:41:53.568Z,20.30
2022-09-11T13:44:35.450Z,20.20
2022-09-11T13:47:02.163Z,20.20
2022-09-11T13:49:36.321Z,20.10
2022-09-11T13:52:06.772Z,20.10
2022-09-11T13:54:35.235Z,20.10
2022-09-11T13:57:01.814Z,20.10
2022-09-11T13:59:38.776Z,20.00
2022-09-11T14:02:14.604Z,20.00
2022-09-11T14:04:42.055Z,19.90
2022-09-11T14:07:22.186Z,19.80
2022-09-11T14:09:50.586Z,19.70
2022-09-11T14:12:20.297Z,19.70
2022-09-11T14:14:50.329Z,19.70
2022-09-11T14:17:17.245Z,19.80
2022-09-11T14:19:45.795Z,19.80
2022-09-11T14:22:32.250Z,19.80
2022-09-11T14:25:04.808Z,19.90
2022-09-11T14:27:32.756Z,19.90
2022-09-11T14:29:59.407Z,19.80
2022-09-11T14:32:33.750Z,19.70
2022-09-11T14:35:00.986Z,19.70
2022-09-11T14:37:28.980Z,19.60
2022-09-11T14:40:00.152Z,19.50
2022-09-11T14:42:28.927Z,19.30
2022-09-11T14:44:56.023Z,19.10
2022-09-11T14:47:25.051Z,18.90
2022-09-11T14:49:53.374Z,18.70
2022-09-11T14:52:20.878Z,18.60
2022-09-11T14:54:48.336Z,18.50
2022-09-11T14:57:20.326Z,18.40
2022-09-11T14:59:47.560Z,18.40
2022-09-11T15:02:19.756Z,18.30
2022-09-11T15:04:49.426Z,18.40
2022-09-11T15:07:17.035Z,18.50
2022-09-11T15:09:43.719Z,18.60
2022-09-11T15:12:11.631Z,18.70
2022-09-11T15:14:55.897Z,18.90
2022-09-11T15:17:25.189Z,19.00
2022-09-11T15:19:52.690Z,19.20
2022-09-11T15:22:19.580Z,19.30
2022-09-11T15:24:47.257Z,19.40
2022-09-11T15:27:14.963Z,19.50
2022-09-11T15:29:42.816Z,19.50
2022-09-11T15:32:10.265Z,19.40
2022-09-11T15:34:38.307Z,19.30
2022-09-11T15:37:05.391Z,19.10
2022-09-11T15:39:32.136Z,19.10
2022-09-11T15:41:59.198Z,19.00
2022-09-11T15:44:27.265Z,18.90
2022-09-11T15:46:55.237Z,18.80
2022-09-11T15:49:22.963Z,18.70
2022-09-11T15:51:49.954Z,18.70
2022-09-11T15:54:16.783Z,18.60
2022-09-11T15:56:43.637Z,18.50
2022-09-11T15:59:11.396Z,18.30
2022-09-11T16:01:38.150Z,18.20
2022-09-11T16:04:07.156Z,18.10
2022-09-11T16:06:35.259Z,18.00
2022-09-11T16:09:04.173Z,17.90
2022-09-11T16:11:31.816Z,17.80
2022-09-11T16:13:59.319Z,17.70
2022-09-11T16:16:26.527Z,17.60
2022-09-11T16:18:53.406Z,17.60
2022-09-11T16:21:20.770Z,17.50
2022-09-11T16:23:51.245Z,17.50
2022-09-11T16:26:21.196Z,17.50
2022-09-11T16:28:48.232Z,17.50
2022-09-11T16:31:15.475Z,17.40
2022-09-11T16:33:49.942Z,17.30
2022-09-11T16:36:18.375Z,17.30
2022-09-11T16:38:45.602Z,17.30
2022-09-11T16:41:14.712Z,17.20
2022-09-11T16:43:42.560Z,17.20
2022-09-11T16:46:09.627Z,17.20
2022-09-11T16:48:39.231Z,17.20
2022-09-11T16:51:06.243Z,17.10
2022-09-11T16:53:33.602Z,17.10
2022-09-11T16:56:03.120Z,17.10
2022-09-11T16:58:29.688Z,17.10
2022-09-11T17:00:56.412Z,17.00
2022-09-11T17:03:23.096Z,17.00
2022-09-11T17:05:51.145Z,16.90
2022-09-11T17:08:17.938Z,16.80
2022-09-11T17:10:45.756Z,16.70
2022-09-11T17:13:12.768Z,16.70
2022-09-11T17:15:40.579Z,16.60
2022-09-11T17:18:07.223Z,16.50
2022-09-11T17:20:34.150Z,16.40
2022-09-11T17:23:00.835Z,16.30
2022-09-11T17:25:27.537Z,16.20
2022-09-11T17:27:54.286Z,16.10
2022-09-11T17:30:21.751Z,16.00
2022-09-11T17:32:48.382Z,15.90
2022-09-11T17:35:16.591Z,15.80
2022-09-11T17:37:43.264Z,15.70
2022-09-11T17:40:10.160Z,15.60
2022-09-11T17:42:36.826Z,15.50
2022-09-11T17:45:03.898Z,15.40
2022-09-11T17:47:31.508Z,15.30
2022-09-11T17:49:58.211Z,15.20
2022-09-11T17:52:24.837Z,15.10
2022-09-11T17:54:51.467Z,15.10
2022-09-11T17:57:18.032Z,15.00
2022-09-11T17:59:46.239Z,14.90
2022-09-11T18:02:16.265Z,14.90
2022-09-11T18:04:44.216Z,14.80
2022-09-11T18:07:11.101Z,14.80
2022-09-11T18:09:37.806Z,14.70
2022-09-11T18:12:04.575Z,14.70
2022-09-11T18:14:31.222Z,14.60
2022-09-11T18:16:57.863Z,14.60
2022-09-11T18:19:24.580Z,14.60
2022-09-11T18:21:51.230Z,14.50
2022-09-11T18:24:21.287Z,14.50
2022-09-11T18:26:49.822Z,14.40
2022-09-11T18:29:17.131Z,14.40
2022-09-11T18:31:45.022Z,14.40
2022-09-11T18:34:16.143Z,14.40
2022-09-11T18:36:43.219Z,14.30
2022-09-11T18:39:10.698Z,14.30
2022-09-11T18:41:37.342Z,14.30
2022-09-11T18:44:05.761Z,14.20
2022-09-11T18:46:32.757Z,14.20
2022-09-11T18:48:59.978Z,14.20
2022-09-11T18:51:27.141Z,14.10
2022-09-11T18:53:54.270Z,14.10
2022-09-11T18:56:22.068Z,14.00
2022-09-11T18:58:50.467Z,14.00
2022-09-11T19:01:18.071Z,13.90
2022-09-11T19:03:44.983Z,13.90
2022-09-11T19:06:12.879Z,13.80
2022-09-11T19:08:40.512Z,13.80
2022-09-11T19:11:17.951Z,13.70
2022-09-11T19:13:45.385Z,13.70
2022-09-11T19:16:12.350Z,13.60
2022-09-11T19:18:39.078Z,13.60
2022-09-11T19:21:10.025Z,13.60
2022-09-11T19:23:37.939Z,13.60
2022-09-11T19:26:05.564Z,13.50
2022-09-11T19:28:35.536Z,13.50
2022-09-11T19:31:02.567Z,13.40
2022-09-11T19:33:29.983Z,13.40
2022-09-11T19:35:57.454Z,13.30
2022-09-11T19:38:26.979Z,13.30
2022-09-11T19:40:53.586Z,13.20
2022-09-11T19:43:24.887Z,13.20
2022-09-11T19:45:51.622Z,13.10
2022-09-11T19:48:18.435Z,13.10
2022-09-11T19:50:45.392Z,13.00
2022-09-11T19:53:12.044Z,12.90
2022-09-11T19:55:38.633Z,12.90
2022-09-11T19:58:05.325Z,12.80
2022-09-11T20:00:31.986Z,12.80
2022-09-11T20:03:00.318Z,12.80
2022-09-11T20:05:27.124Z,12.70
2022-09-11T20:07:54.030Z,12.70
2022-09-11T20:10:23.201Z,12.60
2022-09-11T20:12:50.438Z,12.60
2022-09-11T20:15:17.128Z,12.50
2022-09-11T20:17:44.780Z,12.50
2022-09-11T20:20:11.930Z,12.40
2022-09-11T20:22:38.551Z,12.40
2022-09-11T20:25:05.353Z,12.40
2022-09-11T20:27:33.071Z,12.30
2022-09-11T20:30:00.639Z,12.30
2022-09-11T20:32:27.445Z,12.20
2022-09-11T20:34:54.027Z,12.20
2022-09-11T20:37:20.628Z,12.10
2022-09-11T20:39:47.578Z,12.10
2022-09-11T20:42:14.210Z,12.10
2022-09-11T20:44:40.964Z,12.00
2022-09-11T20:47:09.377Z,12.00
2022-09-11T20:49:35.943Z,12.00
2022-09-11T20:52:03.680Z,12.00
2022-09-11T20:54:30.351Z,11.90
2022-09-11T20:56:56.937Z,11.90
2022-09-11T20:59:23.578Z,11.80
2022-09-11T21:01:50.476Z,11.80
2022-09-11T21:04:17.144Z,11.80
2022-09-11T21:06:43.748Z,11.80
2022-09-11T21:09:11.425Z,11.70
2022-09-11T21:11:38.666Z,11.70
2022-09-11T21:14:05.783Z,11.70
2022-09-11T21:16:32.812Z,11.60
2022-09-11T21:19:00.438Z,11.60
2022-09-11T21:21:27.516Z,11.60
2022-09-11T21:23:55.026Z,11.60
2022-09-11T21:26:21.683Z,11.60
2022-09-11T21:28:48.427Z,11.50
2022-09-11T21:31:15.176Z,11.40
2022-09-11T21:33:41.887Z,11.50
2022-09-11T21:36:08.861Z,11.40
2022-09-11T21:38:36.180Z,11.40
2022-09-11T21:41:04.439Z,11.40
2022-09-11T21:43:31.220Z,11.30
2022-09-11T21:45:57.900Z,11.30
2022-09-11T21:48:24.951Z,11.30
2022-09-11T21:50:51.667Z,11.30
2022-09-11T21:53:18.627Z,11.20
2022-09-11T21:55:46.024Z,11.30
2022-09-11T21:58:17.755Z,11.30
2022-09-11T22:00:45.052Z,11.20
2022-09-11T22:03:12.264Z,11.20
2022-09-11T22:05:43.230Z,11.20
2022-09-11T22:08:10.676Z,11.20
2022-09-11T22:10:43.844Z,11.20
2022-09-11T22:13:10.779Z,11.20
2022-09-11T22:15:41.170Z,11.20
2022-09-11T22:18:08.032Z,11.20
2022-09-11T22:20:36.606Z,11.20
2022-09-11T22:23:03.426Z,11.20
2022-09-11T22:25:30.096Z,11.20
2022-09-11T22:27:59.793Z,11.20
2022-09-11T22:30:27.989Z,11.10
2022-09-11T22:32:54.790Z,11.10
2022-09-11T22:35:21.399Z,11.10
2022-09-11T22:37:48.218Z,11.10
2022-09-11T22:40:14.944Z,11.10
2022-09-11T22:42:41.562Z,11.10
2022-09-11T22:45:08.383Z,11.10
2022-09-11T22:47:35.021Z,11.20
2022-09-11T22:50:01.916Z,11.20
2022-09-11T22:52:28.535Z,11.20
2022-09-11T22:54:55.112Z,11.20
2022-09-11T22:57:21.754Z,11.20
2022-09-11T22:59:48.999Z,11.10
2022-09-11T23:02:15.957Z,11.10
2022-09-11T23:05:05.505Z,11.10
2022-09-11T23:07:32.134Z,11.10
2022-09-11T23:09:58.714Z,11.10
2022-09-11T23:12:25.308Z,11.10
2022-09-11T23:14:52.312Z,11.00
2022-09-11T23:17:19.168Z,11.00
2022-09-11T23:19:45.764Z,11.00
2022-09-11T23:22:12.336Z,11.00
2022-09-11T23:24:38.981Z,11.00
2022-09-11T23:27:05.600Z,11.00
2022-09-11T23:29:32.233Z,11.00
2022-09-11T23:31:58.880Z,10.90
2022-09-11T23:34:25.527Z,11.00
2022-09-11T23:36:52.119Z,11.00
2022-09-11T23:39:18.723Z,10.90
2022-09-11T23:41:45.340Z,10.90
2022-09-11T23:44:12.054Z,10.90
2022-09-11T23:46:38.694Z,10.90
2022-09-11T23:49:07.349Z,10.80
2022-09-11T23:51:34.083Z,10.80
2022-09-11T23:54:00.848Z,10.80
2022-09-11T23:56:27.482Z,10.80
2022-09-11T23:58:54.232Z,10.80
